sensor_id;sensor_type;location;lat;lon;timestamp;temperature;humidity
23719;DHT22;43322;52.230;5.702;2023-07-22T00:01:35;13.50;99.90
23719;DHT22;43322;52.230;5.702;2023-07-22T00:04:02;13.50;99.90
23719;DHT22;43322;52.230;5.702;2023-07-22T00:06:29;13.60;99.90
23719;DHT22;43322;52.230;5.702;2023-07-22T00:08:55;13.60;99.90
23719;DHT22;43322;52.230;5.702;2023-07-22T00:11:23;13.50;99.90
23719;DHT22;43322;52.230;5.702;2023-07-22T00:13:51;13.50;99.90
23719;DHT22;43322;52.230;5.702;2023-07-22T00:16:17;13.50;99.90
23719;DHT22;43322;52.230;5.702;2023-07-22T00:18:44;13.50;99.90
23719;DHT22;43322;52.230;5.702;2023-07-22T00:21:11;13.40;99.90
23719;DHT22;43322;52.230;5.702;2023-07-22T00:23:37;13.40;99.90
23719;DHT22;43322;52.230;5.702;2023-07-22T00:26:04;13.30;99.90
23719;DHT22;43322;52.230;5.702;2023-07-22T00:28:31;13.20;99.90
23719;DHT22;43322;52.230;5.702;2023-07-22T00:30:59;13.30;99.90
23719;DHT22;43322;52.230;5.702;2023-07-22T00:33:28;13.30;99.90
23719;DHT22;43322;52.230;5.702;2023-07-22T00:35:55;13.20;99.90
23719;DHT22;43322;52.230;5.702;2023-07-22T00:38:22;13.20;99.90
23719;DHT22;43322;52.230;5.702;2023-07-22T00:40:48;13.20;99.90
23719;DHT22;43322;52.230;5.702;2023-07-22T00:43:15;13.20;99.90
23719;DHT22;43322;52.230;5.702;2023-07-22T00:45:42;13.10;99.90
23719;DHT22;43322;52.230;5.702;2023-07-22T00:48:11;13.20;99.90
23719;DHT22;43322;52.230;5.702;2023-07-22T00:50:39;13.10;99.90
23719;DHT22;43322;52.230;5.702;2023-07-22T00:53:06;13.10;99.90
23719;DHT22;43322;52.230;5.702;2023-07-22T00:55:33;13.10;99.90
23719;DHT22;43322;52.230;5.702;2023-07-22T00:58:01;13.10;99.90
23719;DHT22;43322;52.230;5.702;2023-07-22T01:00:27;13.30;99.90
23719;DHT22;43322;52.230;5.702;2023-07-22T01:02:54;13.20;99.90
23719;DHT22;43322;52.230;5.702;2023-07-22T01:05:22;13.20;99.90
23719;DHT22;43322;52.230;5.702;2023-07-22T01:07:50;13.30;99.90
23719;DHT22;43322;52.230;5.702;2023-07-22T01:10:17;13.20;99.90
23719;DHT22;43322;52.230;5.702;2023-07-22T01:12:44;13.20;99.90
23719;DHT22;43322;52.230;5.702;2023-07-22T01:15:11;13.20;99.90
23719;DHT22;43322;52.230;5.702;2023-07-22T01:17:38;13.10;99.90
23719;DHT22;43322;52.230;5.702;2023-07-22T01:20:06;13.10;99.90
23719;DHT22;43322;52.230;5.702;2023-07-22T01:22:34;13.10;99.90
23719;DHT22;43322;52.230;5.702;2023-07-22T01:25:03;13.20;99.90
23719;DHT22;43322;52.230;5.702;2023-07-22T01:27:30;13.10;99.90
23719;DHT22;43322;52.230;5.702;2023-07-22T01:29:56;13.10;99.90
23719;DHT22;43322;52.230;5.702;2023-07-22T01:32:23;13.20;99.90
23719;DHT22;43322;52.230;5.702;2023-07-22T01:34:49;13.10;99.90
23719;DHT22;43322;52.230;5.702;2023-07-22T01:37:16;13.20;99.90
23719;DHT22;43322;52.230;5.702;2023-07-22T01:39:43;13.10;99.90
23719;DHT22;43322;52.230;5.702;2023-07-22T01:42:11;13.10;99.90
23719;DHT22;43322;52.230;5.702;2023-07-22T01:44:40;13.10;99.90
23719;DHT22;43322;52.230;5.702;2023-07-22T01:47:06;13.20;99.90
23719;DHT22;43322;52.230;5.702;2023-07-22T01:49:33;13.10;99.90
23719;DHT22;43322;52.230;5.702;2023-07-22T01:52:00;13.10;99.90
23719;DHT22;43322;52.230;5.702;2023-07-22T01:54:27;13.00;99.90
23719;DHT22;43322;52.230;5.702;2023-07-22T01:56:53;13.00;99.90
23719;DHT22;43322;52.230;5.702;2023-07-22T01:59:21;13.00;99.90
23719;DHT22;43322;52.230;5.702;2023-07-22T02:01:48;13.00;99.90
23719;DHT22;43322;52.230;5.702;2023-07-22T02:04:15;13.00;99.90
23719;DHT22;43322;52.230;5.702;2023-07-22T02:06:41;12.90;99.90
23719;DHT22;43322;52.230;5.702;2023-07-22T02:09:08;12.90;99.90
23719;DHT22;43322;52.230;5.702;2023-07-22T02:11:35;13.00;99.90
23719;DHT22;43322;52.230;5.702;2023-07-22T02:14:02;12.90;99.90
23719;DHT22;43322;52.230;5.702;2023-07-22T02:16:33;13.10;99.90
23719;DHT22;43322;52.230;5.702;2023-07-22T02:19:00;12.70;99.90
23719;DHT22;43322;52.230;5.702;2023-07-22T02:21:27;12.70;99.90
23719;DHT22;43322;52.230;5.702;2023-07-22T02:23:54;12.70;99.90
23719;DHT22;43322;52.230;5.702;2023-07-22T02:26:21;12.70;99.90
23719;DHT22;43322;52.230;5.702;2023-07-22T02:28:48;12.60;99.90
23719;DHT22;43322;52.230;5.702;2023-07-22T02:31:14;12.70;99.90
23719;DHT22;43322;52.230;5.702;2023-07-22T02:33:42;12.70;99.90
23719;DHT22;43322;52.230;5.702;2023-07-22T02:36:09;12.70;99.90
23719;DHT22;43322;52.230;5.702;2023-07-22T02:38:36;12.70;99.90
23719;DHT22;43322;52.230;5.702;2023-07-22T02:41:02;12.60;99.90
23719;DHT22;43322;52.230;5.702;2023-07-22T02:43:31;12.70;99.90
23719;DHT22;43322;52.230;5.702;2023-07-22T02:45:59;12.70;99.90
23719;DHT22;43322;52.230;5.702;2023-07-22T02:48:26;12.70;99.90
23719;DHT22;43322;52.230;5.702;2023-07-22T02:50:54;12.60;99.90
23719;DHT22;43322;52.230;5.702;2023-07-22T02:53:21;12.60;99.90
23719;DHT22;43322;52.230;5.702;2023-07-22T02:55:48;12.60;99.90
23719;DHT22;43322;52.230;5.702;2023-07-22T02:58:14;12.60;99.90
23719;DHT22;43322;52.230;5.702;2023-07-22T03:00:41;12.70;99.90
23719;DHT22;43322;52.230;5.702;2023-07-22T03:03:09;12.80;99.90
23719;DHT22;43322;52.230;5.702;2023-07-22T03:05:35;12.80;99.90
23719;DHT22;43322;52.230;5.702;2023-07-22T03:08:04;12.80;99.90
23719;DHT22;43322;52.230;5.702;2023-07-22T03:10:32;12.80;99.90
23719;DHT22;43322;52.230;5.702;2023-07-22T03:12:59;13.00;99.90
23719;DHT22;43322;52.230;5.702;2023-07-22T03:15:29;12.90;99.90
23719;DHT22;43322;52.230;5.702;2023-07-22T03:17:56;12.90;99.90
23719;DHT22;43322;52.230;5.702;2023-07-22T03:20:24;12.90;99.90
23719;DHT22;43322;52.230;5.702;2023-07-22T03:22:51;13.00;99.90
23719;DHT22;43322;52.230;5.702;2023-07-22T03:25:19;13.00;99.90
23719;DHT22;43322;52.230;5.702;2023-07-22T03:27:46;13.10;99.90
23719;DHT22;43322;52.230;5.702;2023-07-22T03:30:15;13.00;99.90
23719;DHT22;43322;52.230;5.702;2023-07-22T03:32:42;13.00;99.90
23719;DHT22;43322;52.230;5.702;2023-07-22T03:35:09;13.00;99.90
23719;DHT22;43322;52.230;5.702;2023-07-22T03:37:36;13.00;99.90
23719;DHT22;43322;52.230;5.702;2023-07-22T03:40:03;12.90;99.90
23719;DHT22;43322;52.230;5.702;2023-07-22T03:42:34;12.90;99.90
23719;DHT22;43322;52.230;5.702;2023-07-22T03:45:00;12.80;99.90
23719;DHT22;43322;52.230;5.702;2023-07-22T03:47:27;12.80;99.90
23719;DHT22;43322;52.230;5.702;2023-07-22T03:49:54;12.80;99.90
23719;DHT22;43322;52.230;5.702;2023-07-22T03:52:20;12.90;99.90
23719;DHT22;43322;52.230;5.702;2023-07-22T03:54:47;12.90;99.90
23719;DHT22;43322;52.230;5.702;2023-07-22T03:57:14;12.90;99.90
23719;DHT22;43322;52.230;5.702;2023-07-22T03:59:42;12.80;99.90
23719;DHT22;43322;52.230;5.702;2023-07-22T04:02:08;12.80;99.90
23719;DHT22;43322;52.230;5.702;2023-07-22T04:04:35;12.80;99.90
23719;DHT22;43322;52.230;5.702;2023-07-22T04:07:01;12.80;99.90
23719;DHT22;43322;52.230;5.702;2023-07-22T04:09:28;12.80;99.90
23719;DHT22;43322;52.230;5.702;2023-07-22T04:11:55;12.80;99.90
23719;DHT22;43322;52.230;5.702;2023-07-22T04:14:22;12.80;99.90
23719;DHT22;43322;52.230;5.702;2023-07-22T04:16:50;12.80;99.90
23719;DHT22;43322;52.230;5.702;2023-07-22T04:19:16;12.80;99.90
23719;DHT22;43322;52.230;5.702;2023-07-22T04:21:43;12.80;99.90
23719;DHT22;43322;52.230;5.702;2023-07-22T04:24:10;12.80;99.90
23719;DHT22;43322;52.230;5.702;2023-07-22T04:26:36;12.90;99.90
23719;DHT22;43322;52.230;5.702;2023-07-22T04:29:03;12.90;99.90
23719;DHT22;43322;52.230;5.702;2023-07-22T04:31:30;13.00;99.90
23719;DHT22;43322;52.230;5.702;2023-07-22T04:33:58;12.90;99.90
23719;DHT22;43322;52.230;5.702;2023-07-22T04:36:25;12.90;99.90
23719;DHT22;43322;52.230;5.702;2023-07-22T04:38:52;13.00;99.90
23719;DHT22;43322;52.230;5.702;2023-07-22T04:41:18;13.00;99.90
23719;DHT22;43322;52.230;5.702;2023-07-22T04:43:45;13.00;99.90
23719;DHT22;43322;52.230;5.702;2023-07-22T04:46:12;13.10;99.90
23719;DHT22;43322;52.230;5.702;2023-07-22T04:48:39;13.10;99.90
23719;DHT22;43322;52.230;5.702;2023-07-22T04:51:07;13.20;99.90
23719;DHT22;43322;52.230;5.702;2023-07-22T04:53:34;13.20;99.90
23719;DHT22;43322;52.230;5.702;2023-07-22T04:56:00;13.30;99.90
23719;DHT22;43322;52.230;5.702;2023-07-22T04:58:28;13.40;99.90
23719;DHT22;43322;52.230;5.702;2023-07-22T05:00:55;13.40;99.90
23719;DHT22;43322;52.230;5.702;2023-07-22T05:03:21;13.50;99.90
23719;DHT22;43322;52.230;5.702;2023-07-22T05:05:50;13.50;99.90
23719;DHT22;43322;52.230;5.702;2023-07-22T05:08:18;13.60;99.90
23719;DHT22;43322;52.230;5.702;2023-07-22T05:10:46;13.60;99.90
23719;DHT22;43322;52.230;5.702;2023-07-22T05:13:13;13.70;99.90
23719;DHT22;43322;52.230;5.702;2023-07-22T05:15:39;13.70;99.90
23719;DHT22;43322;52.230;5.702;2023-07-22T05:18:06;13.70;99.90
23719;DHT22;43322;52.230;5.702;2023-07-22T05:20:32;13.80;99.90
23719;DHT22;43322;52.230;5.702;2023-07-22T05:22:59;13.90;99.90
23719;DHT22;43322;52.230;5.702;2023-07-22T05:25:27;13.90;99.90
23719;DHT22;43322;52.230;5.702;2023-07-22T05:27:54;13.90;99.90
23719;DHT22;43322;52.230;5.702;2023-07-22T05:30:21;14.00;99.90
23719;DHT22;43322;52.230;5.702;2023-07-22T05:32:47;13.90;99.90
23719;DHT22;43322;52.230;5.702;2023-07-22T05:35:14;14.00;99.90
23719;DHT22;43322;52.230;5.702;2023-07-22T05:37:41;14.00;99.90
23719;DHT22;43322;52.230;5.702;2023-07-22T05:40:09;14.20;99.90
23719;DHT22;43322;52.230;5.702;2023-07-22T05:42:37;14.20;99.90
23719;DHT22;43322;52.230;5.702;2023-07-22T05:45:04;14.10;99.90
23719;DHT22;43322;52.230;5.702;2023-07-22T05:47:31;14.20;99.90
23719;DHT22;43322;52.230;5.702;2023-07-22T05:49:58;14.20;99.90
23719;DHT22;43322;52.230;5.702;2023-07-22T05:52:24;14.30;99.90
23719;DHT22;43322;52.230;5.702;2023-07-22T05:54:51;14.30;99.90
23719;DHT22;43322;52.230;5.702;2023-07-22T05:57:18;14.40;99.90
23719;DHT22;43322;52.230;5.702;2023-07-22T05:59:46;14.50;99.90
23719;DHT22;43322;52.230;5.702;2023-07-22T06:02:13;14.60;99.90
23719;DHT22;43322;52.230;5.702;2023-07-22T06:04:40;14.70;99.90
23719;DHT22;43322;52.230;5.702;2023-07-22T06:07:06;14.70;99.90
23719;DHT22;43322;52.230;5.702;2023-07-22T06:09:33;14.70;99.90
23719;DHT22;43322;52.230;5.702;2023-07-22T06:12:00;14.80;99.90
23719;DHT22;43322;52.230;5.702;2023-07-22T06:14:27;14.90;99.90
23719;DHT22;43322;52.230;5.702;2023-07-22T06:16:55;15.00;99.90
23719;DHT22;43322;52.230;5.702;2023-07-22T06:19:22;15.10;99.90
23719;DHT22;43322;52.230;5.702;2023-07-22T06:21:49;15.20;99.90
23719;DHT22;43322;52.230;5.702;2023-07-22T06:24:15;15.20;99.90
23719;DHT22;43322;52.230;5.702;2023-07-22T06:26:42;15.30;99.90
23719;DHT22;43322;52.230;5.702;2023-07-22T06:29:09;15.30;99.90
23719;DHT22;43322;52.230;5.702;2023-07-22T06:31:35;15.40;99.90
23719;DHT22;43322;52.230;5.702;2023-07-22T06:34:03;15.50;99.90
23719;DHT22;43322;52.230;5.702;2023-07-22T06:36:30;15.60;99.90
23719;DHT22;43322;52.230;5.702;2023-07-22T06:38:57;15.60;99.90
23719;DHT22;43322;52.230;5.702;2023-07-22T06:41:23;15.80;99.90
23719;DHT22;43322;52.230;5.702;2023-07-22T06:43:50;15.80;99.90
23719;DHT22;43322;52.230;5.702;2023-07-22T06:46:17;15.80;99.90
23719;DHT22;43322;52.230;5.702;2023-07-22T06:48:44;15.90;99.90
23719;DHT22;43322;52.230;5.702;2023-07-22T06:51:12;15.90;99.90
23719;DHT22;43322;52.230;5.702;2023-07-22T06:53:39;15.90;99.90
23719;DHT22;43322;52.230;5.702;2023-07-22T06:56:06;16.00;99.90
23719;DHT22;43322;52.230;5.702;2023-07-22T06:58:33;16.00;99.90
23719;DHT22;43322;52.230;5.702;2023-07-22T07:00:59;16.10;99.90
23719;DHT22;43322;52.230;5.702;2023-07-22T07:03:26;16.30;99.90
23719;DHT22;43322;52.230;5.702;2023-07-22T07:05:53;16.40;99.90
23719;DHT22;43322;52.230;5.702;2023-07-22T07:08:22;16.50;99.90
23719;DHT22;43322;52.230;5.702;2023-07-22T07:10:49;16.50;99.90
23719;DHT22;43322;52.230;5.702;2023-07-22T07:13:16;16.60;99.90
23719;DHT22;43322;52.230;5.702;2023-07-22T07:15:46;16.70;99.90
23719;DHT22;43322;52.230;5.702;2023-07-22T07:18:13;16.80;99.90
23719;DHT22;43322;52.230;5.702;2023-07-22T07:20:40;17.00;99.90
23719;DHT22;43322;52.230;5.702;2023-07-22T07:23:07;17.10;99.90
23719;DHT22;43322;52.230;5.702;2023-07-22T07:25:34;17.30;99.90
23719;DHT22;43322;52.230;5.702;2023-07-22T07:28:01;17.50;99.90
23719;DHT22;43322;52.230;5.702;2023-07-22T07:30:28;17.60;99.90
23719;DHT22;43322;52.230;5.702;2023-07-22T07:32:54;17.90;99.90
23719;DHT22;43322;52.230;5.702;2023-07-22T07:35:21;17.90;99.90
23719;DHT22;43322;52.230;5.702;2023-07-22T07:37:49;17.90;99.90
23719;DHT22;43322;52.230;5.702;2023-07-22T07:40:16;17.90;99.90
23719;DHT22;43322;52.230;5.702;2023-07-22T07:42:44;17.90;99.90
23719;DHT22;43322;52.230;5.702;2023-07-22T07:45:11;18.00;99.90
23719;DHT22;43322;52.230;5.702;2023-07-22T07:47:37;18.20;99.90
23719;DHT22;43322;52.230;5.702;2023-07-22T07:50:05;18.40;99.90
23719;DHT22;43322;52.230;5.702;2023-07-22T07:52:32;18.60;99.90
23719;DHT22;43322;52.230;5.702;2023-07-22T07:54:59;18.40;99.90
23719;DHT22;43322;52.230;5.702;2023-07-22T07:57:26;18.30;99.90
23719;DHT22;43322;52.230;5.702;2023-07-22T07:59:54;18.40;99.90
23719;DHT22;43322;52.230;5.702;2023-07-22T08:02:20;18.50;99.90
23719;DHT22;43322;52.230;5.702;2023-07-22T08:04:47;18.60;99.90
23719;DHT22;43322;52.230;5.702;2023-07-22T08:07:16;18.60;99.90
23719;DHT22;43322;52.230;5.702;2023-07-22T08:09:43;18.70;99.90
23719;DHT22;43322;52.230;5.702;2023-07-22T08:12:13;18.60;99.90
23719;DHT22;43322;52.230;5.702;2023-07-22T08:14:40;18.60;99.90
23719;DHT22;43322;52.230;5.702;2023-07-22T08:17:08;18.50;99.90
23719;DHT22;43322;52.230;5.702;2023-07-22T08:19:35;18.50;99.90
23719;DHT22;43322;52.230;5.702;2023-07-22T08:22:02;18.50;99.90
23719;DHT22;43322;52.230;5.702;2023-07-22T08:24:29;18.30;99.90
23719;DHT22;43322;52.230;5.702;2023-07-22T08:26:55;18.30;99.90
23719;DHT22;43322;52.230;5.702;2023-07-22T08:29:22;18.20;99.90
23719;DHT22;43322;52.230;5.702;2023-07-22T08:31:49;18.40;99.90
23719;DHT22;43322;52.230;5.702;2023-07-22T08:34:17;18.60;99.90
23719;DHT22;43322;52.230;5.702;2023-07-22T08:36:44;18.80;99.90
23719;DHT22;43322;52.230;5.702;2023-07-22T08:39:10;18.80;99.90
23719;DHT22;43322;52.230;5.702;2023-07-22T08:41:37;19.20;99.90
23719;DHT22;43322;52.230;5.702;2023-07-22T08:44:05;19.50;99.90
23719;DHT22;43322;52.230;5.702;2023-07-22T08:46:33;19.70;99.90
23719;DHT22;43322;52.230;5.702;2023-07-22T08:49:00;19.90;99.90
23719;DHT22;43322;52.230;5.702;2023-07-22T08:51:29;19.80;99.90
23719;DHT22;43322;52.230;5.702;2023-07-22T08:53:57;19.60;99.90
23719;DHT22;43322;52.230;5.702;2023-07-22T08:56:25;19.50;99.90
23719;DHT22;43322;52.230;5.702;2023-07-22T08:58:52;19.50;99.90
23719;DHT22;43322;52.230;5.702;2023-07-22T09:01:19;19.60;99.90
23719;DHT22;43322;52.230;5.702;2023-07-22T09:03:48;19.70;99.90
23719;DHT22;43322;52.230;5.702;2023-07-22T09:06:17;19.70;99.90
23719;DHT22;43322;52.230;5.702;2023-07-22T09:08:45;19.70;99.90
23719;DHT22;43322;52.230;5.702;2023-07-22T09:11:12;19.80;99.90
23719;DHT22;43322;52.230;5.702;2023-07-22T09:13:40;19.90;99.90
23719;DHT22;43322;52.230;5.702;2023-07-22T09:16:08;20.00;99.90
23719;DHT22;43322;52.230;5.702;2023-07-22T09:18:36;20.10;99.90
23719;DHT22;43322;52.230;5.702;2023-07-22T09:21:03;20.40;99.90
23719;DHT22;43322;52.230;5.702;2023-07-22T09:23:33;20.50;99.90
23719;DHT22;43322;52.230;5.702;2023-07-22T09:26:11;20.50;99.90
23719;DHT22;43322;52.230;5.702;2023-07-22T09:28:51;20.30;99.90
23719;DHT22;43322;52.230;5.702;2023-07-22T09:31:19;20.30;99.90
23719;DHT22;43322;52.230;5.702;2023-07-22T09:33:46;20.30;99.90
23719;DHT22;43322;52.230;5.702;2023-07-22T09:36:14;20.40;99.90
23719;DHT22;43322;52.230;5.702;2023-07-22T09:38:40;20.30;99.90
23719;DHT22;43322;52.230;5.702;2023-07-22T09:41:07;20.30;99.90
23719;DHT22;43322;52.230;5.702;2023-07-22T09:43:39;20.00;99.90
23719;DHT22;43322;52.230;5.702;2023-07-22T09:46:07;19.90;99.90
23719;DHT22;43322;52.230;5.702;2023-07-22T09:48:40;19.70;99.90
23719;DHT22;43322;52.230;5.702;2023-07-22T09:51:12;19.50;99.90
23719;DHT22;43322;52.230;5.702;2023-07-22T09:53:44;19.50;99.90
23719;DHT22;43322;52.230;5.702;2023-07-22T09:56:11;19.70;99.90
23719;DHT22;43322;52.230;5.702;2023-07-22T09:58:39;19.80;99.90
23719;DHT22;43322;52.230;5.702;2023-07-22T10:01:07;19.80;99.90
23719;DHT22;43322;52.230;5.702;2023-07-22T10:03:35;19.60;99.90
23719;DHT22;43322;52.230;5.702;2023-07-22T10:06:04;19.40;99.90
23719;DHT22;43322;52.230;5.702;2023-07-22T10:08:34;19.40;99.90
23719;DHT22;43322;52.230;5.702;2023-07-22T10:11:03;19.40;99.90
23719;DHT22;43322;52.230;5.702;2023-07-22T10:13:32;19.30;99.90
23719;DHT22;43322;52.230;5.702;2023-07-22T10:15:59;19.30;99.90
23719;DHT22;43322;52.230;5.702;2023-07-22T10:18:26;19.30;99.90
23719;DHT22;43322;52.230;5.702;2023-07-22T10:20:54;19.30;99.90
23719;DHT22;43322;52.230;5.702;2023-07-22T10:23:22;19.10;99.90
23719;DHT22;43322;52.230;5.702;2023-07-22T10:25:50;18.90;99.90
23719;DHT22;43322;52.230;5.702;2023-07-22T10:28:19;18.80;99.90
23719;DHT22;43322;52.230;5.702;2023-07-22T10:30:46;18.90;99.90
23719;DHT22;43322;52.230;5.702;2023-07-22T10:33:14;18.90;99.90
23719;DHT22;43322;52.230;5.702;2023-07-22T10:35:42;19.20;99.90
23719;DHT22;43322;52.230;5.702;2023-07-22T10:38:11;19.30;99.90
23719;DHT22;43322;52.230;5.702;2023-07-22T10:40:50;19.30;99.90
23719;DHT22;43322;52.230;5.702;2023-07-22T10:43:18;19.10;99.90
23719;DHT22;43322;52.230;5.702;2023-07-22T10:45:50;19.10;99.90
23719;DHT22;43322;52.230;5.702;2023-07-22T10:48:19;19.10;99.90
23719;DHT22;43322;52.230;5.702;2023-07-22T10:50:47;19.20;99.90
23719;DHT22;43322;52.230;5.702;2023-07-22T10:53:20;19.30;99.90
23719;DHT22;43322;52.230;5.702;2023-07-22T10:56:03;19.50;99.90
23719;DHT22;43322;52.230;5.702;2023-07-22T10:58:30;19.50;99.90
23719;DHT22;43322;52.230;5.702;2023-07-22T11:01:21;19.30;99.90
23719;DHT22;43322;52.230;5.702;2023-07-22T11:04:21;19.30;99.90
23719;DHT22;43322;52.230;5.702;2023-07-22T11:06:56;19.30;99.90
23719;DHT22;43322;52.230;5.702;2023-07-22T11:09:41;19.40;99.90
23719;DHT22;43322;52.230;5.702;2023-07-22T11:12:12;19.50;99.90
23719;DHT22;43322;52.230;5.702;2023-07-22T11:14:45;19.50;99.90
23719;DHT22;43322;52.230;5.702;2023-07-22T11:17:12;19.10;99.90
23719;DHT22;43322;52.230;5.702;2023-07-22T11:19:40;18.90;99.90
23719;DHT22;43322;52.230;5.702;2023-07-22T11:22:07;18.90;99.90
23719;DHT22;43322;52.230;5.702;2023-07-22T11:24:35;18.80;99.90
23719;DHT22;43322;52.230;5.702;2023-07-22T11:27:03;18.80;99.90
23719;DHT22;43322;52.230;5.702;2023-07-22T11:29:30;18.80;99.90
23719;DHT22;43322;52.230;5.702;2023-07-22T11:31:57;18.70;99.90
23719;DHT22;43322;52.230;5.702;2023-07-22T11:34:25;18.50;99.90
23719;DHT22;43322;52.230;5.702;2023-07-22T11:36:55;18.30;99.90
23719;DHT22;43322;52.230;5.702;2023-07-22T11:39:24;17.80;99.90
23719;DHT22;43322;52.230;5.702;2023-07-22T11:41:51;17.40;99.90
23719;DHT22;43322;52.230;5.702;2023-07-22T11:44:20;17.10;99.90
23719;DHT22;43322;52.230;5.702;2023-07-22T11:46:51;17.00;99.90
23719;DHT22;43322;52.230;5.702;2023-07-22T11:49:25;17.00;99.90
23719;DHT22;43322;52.230;5.702;2023-07-22T11:51:56;17.00;99.90
23719;DHT22;43322;52.230;5.702;2023-07-22T11:54:23;17.00;99.90
23719;DHT22;43322;52.230;5.702;2023-07-22T11:56:50;17.00;99.90
23719;DHT22;43322;52.230;5.702;2023-07-22T11:59:16;17.10;99.90
23719;DHT22;43322;52.230;5.702;2023-07-22T12:01:44;17.20;99.90
23719;DHT22;43322;52.230;5.702;2023-07-22T12:04:12;17.20;99.90
23719;DHT22;43322;52.230;5.702;2023-07-22T12:06:39;17.10;99.90
23719;DHT22;43322;52.230;5.702;2023-07-22T12:09:09;17.10;99.90
23719;DHT22;43322;52.230;5.702;2023-07-22T12:11:36;17.20;99.90
23719;DHT22;43322;52.230;5.702;2023-07-22T12:14:09;17.20;99.90
23719;DHT22;43322;52.230;5.702;2023-07-22T12:16:38;17.50;99.90
23719;DHT22;43322;52.230;5.702;2023-07-22T12:19:06;17.80;99.90
23719;DHT22;43322;52.230;5.702;2023-07-22T12:21:33;18.10;99.90
23719;DHT22;43322;52.230;5.702;2023-07-22T12:24:00;18.10;99.90
23719;DHT22;43322;52.230;5.702;2023-07-22T12:26:30;17.90;99.90
23719;DHT22;43322;52.230;5.702;2023-07-22T12:28:57;17.70;99.90
23719;DHT22;43322;52.230;5.702;2023-07-22T12:31:24;17.40;99.90
23719;DHT22;43322;52.230;5.702;2023-07-22T12:33:51;17.20;99.90
23719;DHT22;43322;52.230;5.702;2023-07-22T12:36:18;17.20;99.90
23719;DHT22;43322;52.230;5.702;2023-07-22T12:38:44;17.10;99.90
23719;DHT22;43322;52.230;5.702;2023-07-22T12:41:11;17.10;99.90
23719;DHT22;43322;52.230;5.702;2023-07-22T12:43:39;17.10;99.90
23719;DHT22;43322;52.230;5.702;2023-07-22T12:46:06;17.10;99.90
23719;DHT22;43322;52.230;5.702;2023-07-22T12:48:32;17.20;99.90
23719;DHT22;43322;52.230;5.702;2023-07-22T12:50:59;17.20;99.90
23719;DHT22;43322;52.230;5.702;2023-07-22T12:53:26;17.40;99.90
23719;DHT22;43322;52.230;5.702;2023-07-22T12:55:52;17.50;99.90
23719;DHT22;43322;52.230;5.702;2023-07-22T12:58:19;17.30;99.90
23719;DHT22;43322;52.230;5.702;2023-07-22T13:00:47;17.50;99.90
23719;DHT22;43322;52.230;5.702;2023-07-22T13:03:14;17.60;99.90
23719;DHT22;43322;52.230;5.702;2023-07-22T13:05:40;17.60;99.90
23719;DHT22;43322;52.230;5.702;2023-07-22T13:08:07;17.60;99.90
23719;DHT22;43322;52.230;5.702;2023-07-22T13:10:34;17.40;99.90
23719;DHT22;43322;52.230;5.702;2023-07-22T13:13:03;17.40;99.90
23719;DHT22;43322;52.230;5.702;2023-07-22T13:15:29;17.40;99.90
23719;DHT22;43322;52.230;5.702;2023-07-22T13:17:57;17.40;99.90
23719;DHT22;43322;52.230;5.702;2023-07-22T13:20:24;17.30;99.90
23719;DHT22;43322;52.230;5.702;2023-07-22T13:22:51;17.30;99.90
23719;DHT22;43322;52.230;5.702;2023-07-22T13:25:17;17.30;99.90
23719;DHT22;43322;52.230;5.702;2023-07-22T13:27:44;17.30;99.90
23719;DHT22;43322;52.230;5.702;2023-07-22T13:30:10;17.40;99.90
23719;DHT22;43322;52.230;5.702;2023-07-22T13:32:37;17.40;99.90
23719;DHT22;43322;52.230;5.702;2023-07-22T13:35:06;17.40;99.90
23719;DHT22;43322;52.230;5.702;2023-07-22T13:37:33;17.30;99.90
23719;DHT22;43322;52.230;5.702;2023-07-22T13:39:59;17.30;99.90
23719;DHT22;43322;52.230;5.702;2023-07-22T13:42:26;17.20;99.90
23719;DHT22;43322;52.230;5.702;2023-07-22T13:44:53;17.10;99.90
23719;DHT22;43322;52.230;5.702;2023-07-22T13:47:19;17.70;99.90
23719;DHT22;43322;52.230;5.702;2023-07-22T13:49:46;17.00;99.90
23719;DHT22;43322;52.230;5.702;2023-07-22T13:52:14;16.90;99.90
23719;DHT22;43322;52.230;5.702;2023-07-22T13:54:40;16.80;99.90
23719;DHT22;43322;52.230;5.702;2023-07-22T13:57:07;16.70;99.90
23719;DHT22;43322;52.230;5.702;2023-07-22T13:59:34;16.70;99.90
23719;DHT22;43322;52.230;5.702;2023-07-22T14:02:01;16.60;99.90
23719;DHT22;43322;52.230;5.702;2023-07-22T14:04:28;16.70;99.90
23719;DHT22;43322;52.230;5.702;2023-07-22T14:06:55;16.70;99.90
23719;DHT22;43322;52.230;5.702;2023-07-22T14:09:23;16.70;99.90
23719;DHT22;43322;52.230;5.702;2023-07-22T14:11:50;16.70;99.90
23719;DHT22;43322;52.230;5.702;2023-07-22T14:14:17;16.70;99.90
23719;DHT22;43322;52.230;5.702;2023-07-22T14:16:43;16.70;99.90
23719;DHT22;43322;52.230;5.702;2023-07-22T14:19:10;16.60;99.90
23719;DHT22;43322;52.230;5.702;2023-07-22T14:21:36;16.70;99.90
23719;DHT22;43322;52.230;5.702;2023-07-22T14:24:03;16.60;99.90
23719;DHT22;43322;52.230;5.702;2023-07-22T14:26:31;16.60;99.90
23719;DHT22;43322;52.230;5.702;2023-07-22T14:28:58;16.60;99.90
23719;DHT22;43322;52.230;5.702;2023-07-22T14:31:24;16.60;99.90
23719;DHT22;43322;52.230;5.702;2023-07-22T14:33:51;16.70;99.90
23719;DHT22;43322;52.230;5.702;2023-07-22T14:36:18;16.70;99.90
23719;DHT22;43322;52.230;5.702;2023-07-22T14:38:44;16.70;99.90
23719;DHT22;43322;52.230;5.702;2023-07-22T14:41:11;16.60;99.90
23719;DHT22;43322;52.230;5.702;2023-07-22T14:43:39;16.70;99.90
23719;DHT22;43322;52.230;5.702;2023-07-22T14:46:06;16.70;99.90
23719;DHT22;43322;52.230;5.702;2023-07-22T14:48:32;16.70;99.90
23719;DHT22;43322;52.230;5.702;2023-07-22T14:50:59;16.80;99.90
23719;DHT22;43322;52.230;5.702;2023-07-22T14:53:26;16.90;99.90
23719;DHT22;43322;52.230;5.702;2023-07-22T14:55:53;16.90;99.90
23719;DHT22;43322;52.230;5.702;2023-07-22T14:58:19;17.00;99.90
23719;DHT22;43322;52.230;5.702;2023-07-22T15:00:47;17.00;99.90
23719;DHT22;43322;52.230;5.702;2023-07-22T15:03:15;17.10;99.90
23719;DHT22;43322;52.230;5.702;2023-07-22T15:05:42;17.10;99.90
23719;DHT22;43322;52.230;5.702;2023-07-22T15:08:08;17.10;99.90
23719;DHT22;43322;52.230;5.702;2023-07-22T15:10:35;17.10;99.90
23719;DHT22;43322;52.230;5.702;2023-07-22T15:13:02;17.20;99.90
23719;DHT22;43322;52.230;5.702;2023-07-22T15:15:29;17.20;99.90
23719;DHT22;43322;52.230;5.702;2023-07-22T15:17:57;17.20;99.90
23719;DHT22;43322;52.230;5.702;2023-07-22T15:20:23;17.20;99.90
23719;DHT22;43322;52.230;5.702;2023-07-22T15:22:50;17.20;99.90
23719;DHT22;43322;52.230;5.702;2023-07-22T15:25:17;17.30;99.90
23719;DHT22;43322;52.230;5.702;2023-07-22T15:27:43;17.40;99.90
23719;DHT22;43322;52.230;5.702;2023-07-22T15:30:10;17.40;99.90
23719;DHT22;43322;52.230;5.702;2023-07-22T15:32:38;17.40;99.90